Accueil
METAR-TAF:

METAR-TAF

Aéroports :

Aéroport d'Antalya

Antalya, Turquie

latitude: 36-42N, longitude: 030-44E, altitude: 50 m

Observation

Le bulletin a été fait il y a 44 minutes, à 20:50 UTC
Vent 5 kt de nord/nord-ouest, variant entre nord-ouest et nord/nord-est
Température 15°C
Humidité 88%
Pression 1020 hPa
Visibilité 10 km ou plus
Nuages épars à une hauteur de 3000 ft

METAR: LTAI 192050Z 34005KT 320V020 9999 SCT030 15/13 Q1020 NOSIG RMK RWY18C 32005KT RWY36R 34002KT RWY18L 32004KT 310V040

Heure: 00:34 (21:34 UTC)

Prévision

Le bulletin a été fait il y a 9 minutes, à 21:25 UTC
Prévision valable du 19 à 21 UTC au 20 à 18 UTC
Vent 2 kt de direction variable
Visibilité 10 km ou plus
Nuages épars à une hauteur de 3000 ft
Evoluant progressivement
du 20 à 02 UTC au 20 à 06 UTC
Visibilité 10 km ou plus
pas de nuages en-dessous de 1500 mètres et pas de cumulonimbus.

TAF: LTAI 192125Z 1921/2018 VRB02KT 9999 SCT030 BECMG 2002/2006 CAVOK

Observations et prévisions météorologiques de plus de 4000 aéroports (messages METAR et TAF).

Les stations disponibles sont représentées par des disques jaunes et rouges sur la carte.

Passer la souris dessus pour voir le nom de la station.

Cliquer dessus pour voir les observations et prévisions météorologiques.

Pour changer de carte: cliquez sur les boutons verts avec une croix noire pour zoomer, sur le bouton vert avec un tiret pour effectuer un zoom arrière, ou sur les flèches vertes pour les cartes adjacentes.


METAR-TAF: